sensor_id;sensor_type;location;lat;lon;timestamp;pressure;altitude;pressure_sealevel;temperature;humidity
46682;BME280;34101;53.430;-2.224;2023-03-14T00:01:00;98306.34;;;7.89;76.93
46682;BME280;34101;53.430;-2.224;2023-03-14T00:03:34;98305.52;;;7.89;76.79
46682;BME280;34101;53.430;-2.224;2023-03-14T00:06:02;98313.06;;;7.89;76.77
46682;BME280;34101;53.430;-2.224;2023-03-14T00:08:29;98318.09;;;7.90;76.75
46682;BME280;34101;53.430;-2.224;2023-03-14T00:10:57;98318.45;;;7.91;76.78
46682;BME280;34101;53.430;-2.224;2023-03-14T00:13:25;98324.21;;;7.92;76.85
46682;BME280;34101;53.430;-2.224;2023-03-14T00:15:52;98327.50;;;7.95;76.74
46682;BME280;34101;53.430;-2.224;2023-03-14T00:18:20;98338.15;;;7.89;76.84
46682;BME280;34101;53.430;-2.224;2023-03-14T00:20:48;98339.86;;;7.89;77.03
46682;BME280;34101;53.430;-2.224;2023-03-14T00:23:15;98349.16;;;7.90;77.08
46682;BME280;34101;53.430;-2.224;2023-03-14T00:25:44;98358.27;;;7.86;77.49
46682;BME280;34101;53.430;-2.224;2023-03-14T00:28:10;98366.40;;;7.91;77.40
46682;BME280;34101;53.430;-2.224;2023-03-14T00:30:39;98371.33;;;7.76;77.01
46682;BME280;34101;53.430;-2.224;2023-03-14T00:33:06;98378.13;;;7.71;77.43
46682;BME280;34101;53.430;-2.224;2023-03-14T00:35:34;98386.80;;;7.76;77.21
46682;BME280;34101;53.430;-2.224;2023-03-14T00:38:02;98396.44;;;7.78;77.36
46682;BME280;34101;53.430;-2.224;2023-03-14T00:40:29;98403.82;;;7.82;76.96
46682;BME280;34101;53.430;-2.224;2023-03-14T00:42:56;98409.34;;;7.80;77.03
46682;BME280;34101;53.430;-2.224;2023-03-14T00:45:24;98419.61;;;7.77;76.72
46682;BME280;34101;53.430;-2.224;2023-03-14T00:47:51;98425.34;;;7.78;76.46
46682;BME280;34101;53.430;-2.224;2023-03-14T00:50:18;98430.14;;;7.73;76.42
46682;BME280;34101;53.430;-2.224;2023-03-14T00:52:46;98436.84;;;7.69;76.46
46682;BME280;34101;53.430;-2.224;2023-03-14T00:55:14;98439.88;;;7.71;76.47
46682;BME280;34101;53.430;-2.224;2023-03-14T00:57:41;98447.84;;;7.67;76.37
46682;BME280;34101;53.430;-2.224;2023-03-14T01:00:12;98458.91;;;7.66;76.23
46682;BME280;34101;53.430;-2.224;2023-03-14T01:02:40;98469.60;;;7.66;76.00
46682;BME280;34101;53.430;-2.224;2023-03-14T01:05:08;98480.70;;;7.67;76.19
46682;BME280;34101;53.430;-2.224;2023-03-14T01:07:35;98490.40;;;7.57;75.57
46682;BME280;34101;53.430;-2.224;2023-03-14T01:10:03;98493.07;;;7.47;75.99
46682;BME280;34101;53.430;-2.224;2023-03-14T01:12:31;98502.32;;;7.46;75.65
46682;BME280;34101;53.430;-2.224;2023-03-14T01:14:58;98513.99;;;7.52;75.69
46682;BME280;34101;53.430;-2.224;2023-03-14T01:17:26;98517.83;;;7.54;76.04
46682;BME280;34101;53.430;-2.224;2023-03-14T01:19:53;98524.25;;;7.57;76.02
46682;BME280;34101;53.430;-2.224;2023-03-14T01:22:21;98529.54;;;7.60;76.02
46682;BME280;34101;53.430;-2.224;2023-03-14T01:24:48;98535.73;;;7.48;75.66
46682;BME280;34101;53.430;-2.224;2023-03-14T01:27:16;98542.25;;;7.43;75.51
46682;BME280;34101;53.430;-2.224;2023-03-14T01:29:43;98548.49;;;7.40;75.39
46682;BME280;34101;53.430;-2.224;2023-03-14T01:32:11;98552.54;;;7.37;75.24
46682;BME280;34101;53.430;-2.224;2023-03-14T01:34:38;98558.37;;;7.36;75.19
46682;BME280;34101;53.430;-2.224;2023-03-14T01:37:06;98566.80;;;7.33;75.18
46682;BME280;34101;53.430;-2.224;2023-03-14T01:39:33;98574.14;;;7.31;74.50
46682;BME280;34101;53.430;-2.224;2023-03-14T01:42:01;98582.96;;;7.32;75.11
46682;BME280;34101;53.430;-2.224;2023-03-14T01:44:28;98589.92;;;7.37;75.14
46682;BME280;34101;53.430;-2.224;2023-03-14T01:46:56;98596.09;;;7.38;75.06
46682;BME280;34101;53.430;-2.224;2023-03-14T01:49:27;98599.40;;;7.39;75.24
46682;BME280;34101;53.430;-2.224;2023-03-14T01:51:59;98611.65;;;7.34;74.79
46682;BME280;34101;53.430;-2.224;2023-03-14T01:54:30;98623.46;;;7.36;75.07
46682;BME280;34101;53.430;-2.224;2023-03-14T01:57:04;98638.17;;;7.29;74.14
46682;BME280;34101;53.430;-2.224;2023-03-14T01:59:32;98645.05;;;7.22;73.75
46682;BME280;34101;53.430;-2.224;2023-03-14T02:02:00;98653.73;;;7.16;73.84
46682;BME280;34101;53.430;-2.224;2023-03-14T02:04:30;98659.49;;;7.12;73.48
46682;BME280;34101;53.430;-2.224;2023-03-14T02:07:04;98668.20;;;7.12;73.89
46682;BME280;34101;53.430;-2.224;2023-03-14T02:09:35;98672.20;;;7.05;73.76
46682;BME280;34101;53.430;-2.224;2023-03-14T02:12:03;98684.48;;;6.99;74.00
46682;BME280;34101;53.430;-2.224;2023-03-14T02:14:33;98690.49;;;6.92;73.28
46682;BME280;34101;53.430;-2.224;2023-03-14T02:17:00;98698.23;;;6.76;73.84
46682;BME280;34101;53.430;-2.224;2023-03-14T02:19:49;98706.55;;;6.71;73.92
46682;BME280;34101;53.430;-2.224;2023-03-14T02:22:18;98710.69;;;6.65;74.26
46682;BME280;34101;53.430;-2.224;2023-03-14T02:24:50;98714.22;;;6.54;73.78
46682;BME280;34101;53.430;-2.224;2023-03-14T02:27:22;98719.29;;;6.40;74.46
46682;BME280;34101;53.430;-2.224;2023-03-14T02:29:52;98724.70;;;6.25;74.49
46682;BME280;34101;53.430;-2.224;2023-03-14T02:32:22;98734.15;;;6.26;74.72
46682;BME280;34101;53.430;-2.224;2023-03-14T02:34:54;98740.55;;;6.19;74.77
46682;BME280;34101;53.430;-2.224;2023-03-14T02:37:25;98751.41;;;6.08;75.75
46682;BME280;34101;53.430;-2.224;2023-03-14T02:39:54;98761.57;;;6.06;76.09
46682;BME280;34101;53.430;-2.224;2023-03-14T02:42:21;98767.00;;;6.00;76.13
46682;BME280;34101;53.430;-2.224;2023-03-14T02:44:52;98776.09;;;6.11;76.32
46682;BME280;34101;53.430;-2.224;2023-03-14T02:47:23;98785.77;;;6.22;76.24
46682;BME280;34101;53.430;-2.224;2023-03-14T02:49:59;98791.80;;;6.24;76.27
46682;BME280;34101;53.430;-2.224;2023-03-14T02:52:28;98798.79;;;6.17;76.54
46682;BME280;34101;53.430;-2.224;2023-03-14T02:54:56;98811.00;;;6.27;76.25
46682;BME280;34101;53.430;-2.224;2023-03-14T02:57:23;98815.43;;;6.26;76.14
46682;BME280;34101;53.430;-2.224;2023-03-14T02:59:51;98826.96;;;6.08;76.58
46682;BME280;34101;53.430;-2.224;2023-03-14T03:02:18;98837.18;;;6.19;76.47
46682;BME280;34101;53.430;-2.224;2023-03-14T03:04:46;98839.88;;;6.27;76.38
46682;BME280;34101;53.430;-2.224;2023-03-14T03:07:13;98851.00;;;6.30;76.39
46682;BME280;34101;53.430;-2.224;2023-03-14T03:09:40;98858.10;;;6.10;76.06
46682;BME280;34101;53.430;-2.224;2023-03-14T03:12:08;98867.77;;;6.13;76.71
46682;BME280;34101;53.430;-2.224;2023-03-14T03:14:35;98868.77;;;6.18;76.86
46682;BME280;34101;53.430;-2.224;2023-03-14T03:17:03;98878.86;;;6.26;76.29
46682;BME280;34101;53.430;-2.224;2023-03-14T03:19:31;98886.45;;;6.24;77.21
46682;BME280;34101;53.430;-2.224;2023-03-14T03:21:59;98892.84;;;6.25;76.55
46682;BME280;34101;53.430;-2.224;2023-03-14T03:24:27;98901.62;;;6.18;76.52
46682;BME280;34101;53.430;-2.224;2023-03-14T03:26:54;98909.23;;;6.12;76.59
46682;BME280;34101;53.430;-2.224;2023-03-14T03:29:22;98920.01;;;6.18;77.11
46682;BME280;34101;53.430;-2.224;2023-03-14T03:31:49;98930.37;;;6.04;76.19
46682;BME280;34101;53.430;-2.224;2023-03-14T03:34:16;98936.14;;;6.07;76.68
46682;BME280;34101;53.430;-2.224;2023-03-14T03:36:44;98940.72;;;6.01;76.70
46682;BME280;34101;53.430;-2.224;2023-03-14T03:39:11;98951.63;;;5.89;75.99
46682;BME280;34101;53.430;-2.224;2023-03-14T03:41:39;98961.50;;;5.87;76.70
46682;BME280;34101;53.430;-2.224;2023-03-14T03:44:06;98968.12;;;5.84;75.34
46682;BME280;34101;53.430;-2.224;2023-03-14T03:46:34;98977.08;;;5.79;76.26
46682;BME280;34101;53.430;-2.224;2023-03-14T03:49:01;98978.59;;;5.71;76.10
46682;BME280;34101;53.430;-2.224;2023-03-14T03:51:29;98983.06;;;5.48;75.59
46682;BME280;34101;53.430;-2.224;2023-03-14T03:53:57;98987.16;;;5.59;76.35
46682;BME280;34101;53.430;-2.224;2023-03-14T03:56:24;98998.49;;;5.50;76.50
46682;BME280;34101;53.430;-2.224;2023-03-14T03:58:51;99007.79;;;5.50;76.33
46682;BME280;34101;53.430;-2.224;2023-03-14T04:01:19;99014.80;;;5.38;77.35
46682;BME280;34101;53.430;-2.224;2023-03-14T04:03:46;99020.28;;;5.46;77.82
46682;BME280;34101;53.430;-2.224;2023-03-14T04:06:14;99029.80;;;5.42;77.71
46682;BME280;34101;53.430;-2.224;2023-03-14T04:08:41;99039.14;;;5.47;77.66
46682;BME280;34101;53.430;-2.224;2023-03-14T04:11:09;99041.36;;;5.56;77.23
46682;BME280;34101;53.430;-2.224;2023-03-14T04:13:36;99054.98;;;5.39;78.30
46682;BME280;34101;53.430;-2.224;2023-03-14T04:16:08;99063.82;;;5.43;78.40
46682;BME280;34101;53.430;-2.224;2023-03-14T04:18:36;99076.35;;;5.58;78.24
46682;BME280;34101;53.430;-2.224;2023-03-14T04:21:04;99077.70;;;5.68;78.18
46682;BME280;34101;53.430;-2.224;2023-03-14T04:23:32;99085.04;;;5.76;78.31
46682;BME280;34101;53.430;-2.224;2023-03-14T04:26:00;99093.57;;;5.89;77.72
46682;BME280;34101;53.430;-2.224;2023-03-14T04:28:27;99103.12;;;5.83;77.56
46682;BME280;34101;53.430;-2.224;2023-03-14T04:30:54;99113.38;;;5.85;77.20
46682;BME280;34101;53.430;-2.224;2023-03-14T04:33:22;99124.68;;;5.80;77.24
46682;BME280;34101;53.430;-2.224;2023-03-14T04:35:53;99133.13;;;5.87;77.39
46682;BME280;34101;53.430;-2.224;2023-03-14T04:38:20;99143.83;;;5.84;77.01
46682;BME280;34101;53.430;-2.224;2023-03-14T04:40:48;99155.06;;;5.82;77.41
46682;BME280;34101;53.430;-2.224;2023-03-14T04:43:15;99162.91;;;5.93;77.68
46682;BME280;34101;53.430;-2.224;2023-03-14T04:45:43;99171.67;;;5.99;77.22
46682;BME280;34101;53.430;-2.224;2023-03-14T04:48:11;99179.74;;;5.96;76.49
46682;BME280;34101;53.430;-2.224;2023-03-14T04:50:38;99186.70;;;5.86;76.34
46682;BME280;34101;53.430;-2.224;2023-03-14T04:53:06;99196.65;;;5.87;76.70
46682;BME280;34101;53.430;-2.224;2023-03-14T04:55:33;99206.67;;;5.88;76.72
46682;BME280;34101;53.430;-2.224;2023-03-14T04:58:00;99214.88;;;5.93;76.70
46682;BME280;34101;53.430;-2.224;2023-03-14T05:00:28;99217.73;;;5.76;75.81
46682;BME280;34101;53.430;-2.224;2023-03-14T05:02:55;99221.63;;;5.80;76.57
46682;BME280;34101;53.430;-2.224;2023-03-14T05:05:23;99235.88;;;5.76;76.35
46682;BME280;34101;53.430;-2.224;2023-03-14T05:07:50;99241.76;;;5.84;76.49
46682;BME280;34101;53.430;-2.224;2023-03-14T05:10:18;99252.57;;;5.85;76.12
46682;BME280;34101;53.430;-2.224;2023-03-14T05:12:45;99258.23;;;5.74;75.23
46682;BME280;34101;53.430;-2.224;2023-03-14T05:15:13;99265.56;;;5.71;74.69
46682;BME280;34101;53.430;-2.224;2023-03-14T05:17:40;99267.96;;;5.59;74.72
46682;BME280;34101;53.430;-2.224;2023-03-14T05:20:09;99276.24;;;5.58;74.92
46682;BME280;34101;53.430;-2.224;2023-03-14T05:22:36;99283.55;;;5.64;74.73
46682;BME280;34101;53.430;-2.224;2023-03-14T05:25:04;99289.05;;;5.62;74.67
46682;BME280;34101;53.430;-2.224;2023-03-14T05:27:32;99290.95;;;5.66;74.37
46682;BME280;34101;53.430;-2.224;2023-03-14T05:30:00;99295.06;;;5.55;74.21
46682;BME280;34101;53.430;-2.224;2023-03-14T05:32:28;99292.31;;;5.61;74.59
46682;BME280;34101;53.430;-2.224;2023-03-14T05:34:55;99293.85;;;5.58;74.05
46682;BME280;34101;53.430;-2.224;2023-03-14T05:37:23;99298.45;;;5.54;74.14
46682;BME280;34101;53.430;-2.224;2023-03-14T05:39:50;99300.81;;;5.55;74.52
46682;BME280;34101;53.430;-2.224;2023-03-14T05:42:18;99302.51;;;5.57;74.28
46682;BME280;34101;53.430;-2.224;2023-03-14T05:44:45;99299.09;;;5.61;74.28
46682;BME280;34101;53.430;-2.224;2023-03-14T05:47:13;99315.43;;;5.62;73.86
46682;BME280;34101;53.430;-2.224;2023-03-14T05:49:40;99328.97;;;5.55;73.73
46682;BME280;34101;53.430;-2.224;2023-03-14T05:52:08;99342.62;;;5.41;73.64
46682;BME280;34101;53.430;-2.224;2023-03-14T05:54:35;99355.25;;;5.31;74.10
46682;BME280;34101;53.430;-2.224;2023-03-14T05:57:03;99361.84;;;5.27;74.55
46682;BME280;34101;53.430;-2.224;2023-03-14T05:59:30;99379.34;;;5.21;74.53
46682;BME280;34101;53.430;-2.224;2023-03-14T06:01:58;99388.43;;;5.19;74.59
46682;BME280;34101;53.430;-2.224;2023-03-14T06:04:25;99396.62;;;5.21;74.99
46682;BME280;34101;53.430;-2.224;2023-03-14T06:06:53;99403.27;;;5.22;74.89
46682;BME280;34101;53.430;-2.224;2023-03-14T06:09:20;99417.39;;;5.26;74.47
46682;BME280;34101;53.430;-2.224;2023-03-14T06:11:48;99422.26;;;5.24;74.78
46682;BME280;34101;53.430;-2.224;2023-03-14T06:14:15;99433.51;;;5.24;74.64
46682;BME280;34101;53.430;-2.224;2023-03-14T06:16:43;99445.92;;;5.23;74.74
46682;BME280;34101;53.430;-2.224;2023-03-14T06:19:10;99456.44;;;5.17;75.09
46682;BME280;34101;53.430;-2.224;2023-03-14T06:21:38;99465.89;;;5.10;74.45
46682;BME280;34101;53.430;-2.224;2023-03-14T06:24:06;99472.80;;;4.97;75.23
46682;BME280;34101;53.430;-2.224;2023-03-14T06:26:34;99477.56;;;4.84;76.09
46682;BME280;34101;53.430;-2.224;2023-03-14T06:29:01;99484.82;;;4.83;76.03
46682;BME280;34101;53.430;-2.224;2023-03-14T06:31:29;99496.99;;;4.78;75.93
46682;BME280;34101;53.430;-2.224;2023-03-14T06:33:56;99505.94;;;4.65;75.63
46682;BME280;34101;53.430;-2.224;2023-03-14T06:36:24;99507.14;;;4.62;75.99
46682;BME280;34101;53.430;-2.224;2023-03-14T06:38:51;99512.28;;;4.55;76.33
46682;BME280;34101;53.430;-2.224;2023-03-14T06:41:19;99517.21;;;4.52;76.51
46682;BME280;34101;53.430;-2.224;2023-03-14T06:43:46;99520.80;;;4.52;75.92
46682;BME280;34101;53.430;-2.224;2023-03-14T06:46:13;99532.39;;;4.40;76.62
46682;BME280;34101;53.430;-2.224;2023-03-14T06:48:41;99538.79;;;4.44;77.00
46682;BME280;34101;53.430;-2.224;2023-03-14T06:51:08;99548.23;;;4.45;77.20
46682;BME280;34101;53.430;-2.224;2023-03-14T06:53:36;99552.50;;;4.51;76.92
46682;BME280;34101;53.430;-2.224;2023-03-14T06:56:04;99560.37;;;4.52;77.11
46682;BME280;34101;53.430;-2.224;2023-03-14T06:58:31;99563.55;;;4.56;76.70
46682;BME280;34101;53.430;-2.224;2023-03-14T07:00:58;99567.52;;;4.52;76.18
46682;BME280;34101;53.430;-2.224;2023-03-14T07:03:26;99569.54;;;4.50;77.36
46682;BME280;34101;53.430;-2.224;2023-03-14T07:05:53;99573.06;;;4.48;77.10
46682;BME280;34101;53.430;-2.224;2023-03-14T07:08:21;99585.05;;;4.53;77.28
46682;BME280;34101;53.430;-2.224;2023-03-14T07:10:48;99591.72;;;4.65;77.31
46682;BME280;34101;53.430;-2.224;2023-03-14T07:13:15;99598.89;;;4.75;76.95
46682;BME280;34101;53.430;-2.224;2023-03-14T07:15:43;99607.36;;;4.81;77.25
46682;BME280;34101;53.430;-2.224;2023-03-14T07:18:11;99614.26;;;4.87;76.43
46682;BME280;34101;53.430;-2.224;2023-03-14T07:20:39;99620.18;;;4.91;77.03
46682;BME280;34101;53.430;-2.224;2023-03-14T07:23:06;99621.47;;;4.93;76.57
46682;BME280;34101;53.430;-2.224;2023-03-14T07:25:34;99635.91;;;4.84;76.36
46682;BME280;34101;53.430;-2.224;2023-03-14T07:28:01;99646.29;;;4.92;76.52
46682;BME280;34101;53.430;-2.224;2023-03-14T07:30:29;99652.60;;;4.94;75.73
46682;BME280;34101;53.430;-2.224;2023-03-14T07:32:57;99660.77;;;4.85;76.33
46682;BME280;34101;53.430;-2.224;2023-03-14T07:35:24;99671.76;;;4.82;76.65
46682;BME280;34101;53.430;-2.224;2023-03-14T07:37:51;99678.86;;;4.88;76.68
46682;BME280;34101;53.430;-2.224;2023-03-14T07:40:19;99682.82;;;5.02;76.67
46682;BME280;34101;53.430;-2.224;2023-03-14T07:42:46;99693.18;;;5.06;76.43
46682;BME280;34101;53.430;-2.224;2023-03-14T07:45:14;99698.24;;;5.15;76.51
46682;BME280;34101;53.430;-2.224;2023-03-14T07:47:41;99703.08;;;5.31;76.12
46682;BME280;34101;53.430;-2.224;2023-03-14T07:50:10;99702.55;;;5.29;75.84
46682;BME280;34101;53.430;-2.224;2023-03-14T07:52:37;99710.94;;;5.41;75.91
46682;BME280;34101;53.430;-2.224;2023-03-14T07:55:06;99720.52;;;5.47;75.32
46682;BME280;34101;53.430;-2.224;2023-03-14T07:57:33;99727.44;;;5.58;75.58
46682;BME280;34101;53.430;-2.224;2023-03-14T08:00:01;99731.21;;;5.71;74.88
46682;BME280;34101;53.430;-2.224;2023-03-14T08:02:28;99734.09;;;5.88;73.91
46682;BME280;34101;53.430;-2.224;2023-03-14T08:04:56;99735.64;;;6.11;73.23
46682;BME280;34101;53.430;-2.224;2023-03-14T08:07:23;99732.82;;;6.19;72.42
46682;BME280;34101;53.430;-2.224;2023-03-14T08:09:51;99728.62;;;6.26;72.01
46682;BME280;34101;53.430;-2.224;2023-03-14T08:12:18;99735.12;;;6.39;71.45
46682;BME280;34101;53.430;-2.224;2023-03-14T08:14:46;99742.90;;;6.37;71.91
46682;BME280;34101;53.430;-2.224;2023-03-14T08:17:13;99748.19;;;6.23;71.99
46682;BME280;34101;53.430;-2.224;2023-03-14T08:19:41;99755.52;;;6.74;70.07
46682;BME280;34101;53.430;-2.224;2023-03-14T08:22:08;99756.78;;;7.54;67.41
46682;BME280;34101;53.430;-2.224;2023-03-14T08:24:36;99759.66;;;8.02;66.36
46682;BME280;34101;53.430;-2.224;2023-03-14T08:27:03;99768.05;;;8.78;63.44
46682;BME280;34101;53.430;-2.224;2023-03-14T08:29:30;99777.99;;;8.99;61.97
46682;BME280;34101;53.430;-2.224;2023-03-14T08:31:58;99780.34;;;8.69;62.12
46682;BME280;34101;53.430;-2.224;2023-03-14T08:34:25;99784.47;;;8.64;62.33
46682;BME280;34101;53.430;-2.224;2023-03-14T08:36:52;99790.61;;;9.08;61.25
46682;BME280;34101;53.430;-2.224;2023-03-14T08:39:20;99796.98;;;9.39;59.39
46682;BME280;34101;53.430;-2.224;2023-03-14T08:41:49;99804.30;;;9.52;59.48
46682;BME280;34101;53.430;-2.224;2023-03-14T08:44:16;99810.09;;;10.10;57.99
46682;BME280;34101;53.430;-2.224;2023-03-14T08:46:44;99816.07;;;10.09;57.25
46682;BME280;34101;53.430;-2.224;2023-03-14T08:49:11;99823.51;;;10.23;57.31
46682;BME280;34101;53.430;-2.224;2023-03-14T08:51:39;99825.94;;;10.34;55.11
46682;BME280;34101;53.430;-2.224;2023-03-14T08:54:09;99832.40;;;10.12;54.80
46682;BME280;34101;53.430;-2.224;2023-03-14T08:56:36;99841.27;;;10.52;54.82
46682;BME280;34101;53.430;-2.224;2023-03-14T08:59:04;99849.19;;;10.31;53.45
46682;BME280;34101;53.430;-2.224;2023-03-14T09:01:31;99855.78;;;10.44;53.75
46682;BME280;34101;53.430;-2.224;2023-03-14T09:03:59;99862.72;;;10.89;53.39
46682;BME280;34101;53.430;-2.224;2023-03-14T09:06:26;99864.82;;;10.18;53.43
46682;BME280;34101;53.430;-2.224;2023-03-14T09:08:53;99869.00;;;10.49;52.71
46682;BME280;34101;53.430;-2.224;2023-03-14T09:11:21;99870.38;;;11.17;50.48
46682;BME280;34101;53.430;-2.224;2023-03-14T09:13:48;99875.45;;;11.54;50.42
46682;BME280;34101;53.430;-2.224;2023-03-14T09:16:16;99875.48;;;11.74;50.82
46682;BME280;34101;53.430;-2.224;2023-03-14T09:18:43;99880.12;;;12.05;47.48
46682;BME280;34101;53.430;-2.224;2023-03-14T09:21:11;99891.63;;;11.95;47.05
46682;BME280;34101;53.430;-2.224;2023-03-14T09:23:39;99899.31;;;11.91;47.20
46682;BME280;34101;53.430;-2.224;2023-03-14T09:26:06;99900.77;;;12.79;45.94
46682;BME280;34101;53.430;-2.224;2023-03-14T09:28:33;99910.63;;;12.08;45.85
46682;BME280;34101;53.430;-2.224;2023-03-14T09:31:06;99915.71;;;12.91;45.70
46682;BME280;34101;53.430;-2.224;2023-03-14T09:33:33;99921.19;;;13.90;42.62
46682;BME280;34101;53.430;-2.224;2023-03-14T09:36:01;99926.88;;;13.68;42.59
46682;BME280;34101;53.430;-2.224;2023-03-14T09:38:29;99933.14;;;13.04;44.93
46682;BME280;34101;53.430;-2.224;2023-03-14T09:41:00;99940.24;;;12.55;44.26
46682;BME280;34101;53.430;-2.224;2023-03-14T09:43:31;99944.88;;;13.03;41.91
46682;BME280;34101;53.430;-2.224;2023-03-14T09:46:01;99955.26;;;11.35;45.16
46682;BME280;34101;53.430;-2.224;2023-03-14T09:48:32;99960.06;;;11.68;45.59
46682;BME280;34101;53.430;-2.224;2023-03-14T09:51:04;99965.08;;;11.39;46.53
46682;BME280;34101;53.430;-2.224;2023-03-14T09:53:37;99962.76;;;11.59;45.57
46682;BME280;34101;53.430;-2.224;2023-03-14T09:56:11;99965.90;;;9.76;48.73
46682;BME280;34101;53.430;-2.224;2023-03-14T09:58:41;99973.98;;;9.78;49.61
46682;BME280;34101;53.430;-2.224;2023-03-14T10:01:13;99977.96;;;10.39;48.79
46682;BME280;34101;53.430;-2.224;2023-03-14T10:03:44;99979.75;;;10.39;48.59
46682;BME280;34101;53.430;-2.224;2023-03-14T10:06:13;99984.52;;;11.03;47.26
46682;BME280;34101;53.430;-2.224;2023-03-14T10:08:41;99988.65;;;12.08;44.86
46682;BME280;34101;53.430;-2.224;2023-03-14T10:11:13;99990.86;;;12.12;43.84
46682;BME280;34101;53.430;-2.224;2023-03-14T10:14:03;99996.58;;;12.52;43.48
46682;BME280;34101;53.430;-2.224;2023-03-14T10:16:33;99991.65;;;12.70;41.38
46682;BME280;34101;53.430;-2.224;2023-03-14T10:19:03;99986.79;;;12.85;42.35
46682;BME280;34101;53.430;-2.224;2023-03-14T10:21:35;99981.61;;;12.29;43.58
46682;BME280;34101;53.430;-2.224;2023-03-14T10:24:19;99979.99;;;11.11;43.37
46682;BME280;34101;53.430;-2.224;2023-03-14T10:26:49;99975.87;;;11.46;45.98
46682;BME280;34101;53.430;-2.224;2023-03-14T10:29:18;99975.55;;;12.06;42.68
46682;BME280;34101;53.430;-2.224;2023-03-14T10:31:51;99986.41;;;12.24;43.41
46682;BME280;34101;53.430;-2.224;2023-03-14T10:34:23;99978.38;;;12.99;43.63
46682;BME280;34101;53.430;-2.224;2023-03-14T10:36:56;99974.51;;;13.24;41.12
46682;BME280;34101;53.430;-2.224;2023-03-14T10:39:27;99978.99;;;12.14;42.11
46682;BME280;34101;53.430;-2.224;2023-03-14T10:42:03;99986.79;;;11.37;44.97
46682;BME280;34101;53.430;-2.224;2023-03-14T10:44:31;99981.12;;;10.09;47.62
46682;BME280;34101;53.430;-2.224;2023-03-14T10:47:02;99988.12;;;10.18;48.08
46682;BME280;34101;53.430;-2.224;2023-03-14T10:49:34;100008.75;;;9.44;49.49
46682;BME280;34101;53.430;-2.224;2023-03-14T10:52:14;100016.25;;;9.47;49.41
46682;BME280;34101;53.430;-2.224;2023-03-14T10:54:47;100016.25;;;8.95;49.42
46682;BME280;34101;53.430;-2.224;2023-03-14T10:57:14;100025.98;;;9.40;49.87
46682;BME280;34101;53.430;-2.224;2023-03-14T10:59:43;100033.44;;;9.14;49.71
46682;BME280;34101;53.430;-2.224;2023-03-14T11:02:31;100029.38;;;9.38;49.86
46682;BME280;34101;53.430;-2.224;2023-03-14T11:05:15;100048.28;;;9.37;50.42
46682;BME280;34101;53.430;-2.224;2023-03-14T11:07:46;100051.33;;;9.44;51.12
46682;BME280;34101;53.430;-2.224;2023-03-14T11:10:19;100053.38;;;9.09;52.36
46682;BME280;34101;53.430;-2.224;2023-03-14T11:12:56;100065.22;;;9.00;54.07
46682;BME280;34101;53.430;-2.224;2023-03-14T11:15:32;100069.30;;;9.01;54.65
46682;BME280;34101;53.430;-2.224;2023-03-14T11:18:47;100076.88;;;8.94;54.95
46682;BME280;34101;53.430;-2.224;2023-03-14T11:21:21;100085.12;;;8.79;55.94
46682;BME280;34101;53.430;-2.224;2023-03-14T11:24:09;100091.22;;;8.76;55.45
46682;BME280;34101;53.430;-2.224;2023-03-14T11:26:45;100097.76;;;8.69;56.74
46682;BME280;34101;53.430;-2.224;2023-03-14T11:29:21;100108.05;;;9.10;56.30
46682;BME280;34101;53.430;-2.224;2023-03-14T11:31:52;100103.56;;;10.35;54.67
46682;BME280;34101;53.430;-2.224;2023-03-14T11:34:27;100106.39;;;11.53;51.77
46682;BME280;34101;53.430;-2.224;2023-03-14T11:36:59;100110.28;;;12.54;48.74
46682;BME280;34101;53.430;-2.224;2023-03-14T11:39:36;100106.59;;;12.55;47.31
46682;BME280;34101;53.430;-2.224;2023-03-14T11:42:10;100109.32;;;12.69;49.22
46682;BME280;34101;53.430;-2.224;2023-03-14T11:44:39;100118.95;;;11.91;48.50
46682;BME280;34101;53.430;-2.224;2023-03-14T11:47:09;100118.33;;;11.33;50.29
46682;BME280;34101;53.430;-2.224;2023-03-14T11:49:42;100117.41;;;10.69;52.00
46682;BME280;34101;53.430;-2.224;2023-03-14T11:52:14;100110.32;;;10.00;54.39
46682;BME280;34101;53.430;-2.224;2023-03-14T11:54:47;100113.12;;;9.38;55.25
46682;BME280;34101;53.430;-2.224;2023-03-14T11:57:18;100116.18;;;9.29;56.42
46682;BME280;34101;53.430;-2.224;2023-03-14T11:59:50;100133.91;;;9.09;55.75
46682;BME280;34101;53.430;-2.224;2023-03-14T12:02:24;100138.74;;;8.91;56.97
46682;BME280;34101;53.430;-2.224;2023-03-14T12:05:22;100167.51;;;8.92;57.42
46682;BME280;34101;53.430;-2.224;2023-03-14T12:08:15;100172.74;;;8.58;58.91
46682;BME280;34101;53.430;-2.224;2023-03-14T12:10:49;100178.84;;;8.57;59.05
46682;BME280;34101;53.430;-2.224;2023-03-14T12:13:18;100184.08;;;8.30;59.75
46682;BME280;34101;53.430;-2.224;2023-03-14T12:15:49;100186.43;;;7.71;61.40
46682;BME280;34101;53.430;-2.224;2023-03-14T12:18:20;100191.22;;;6.42;66.19
46682;BME280;34101;53.430;-2.224;2023-03-14T12:20:54;100192.33;;;6.07;69.08
46682;BME280;34101;53.430;-2.224;2023-03-14T12:23:22;100188.25;;;6.00;69.11
46682;BME280;34101;53.430;-2.224;2023-03-14T12:26:07;100186.16;;;6.68;67.71
46682;BME280;34101;53.430;-2.224;2023-03-14T12:28:34;100176.16;;;7.13;66.39
46682;BME280;34101;53.430;-2.224;2023-03-14T12:31:37;100175.22;;;7.23;66.66
46682;BME280;34101;53.430;-2.224;2023-03-14T12:34:26;100171.46;;;7.41;66.52
46682;BME280;34101;53.430;-2.224;2023-03-14T12:37:02;100178.56;;;7.07;67.18
46682;BME280;34101;53.430;-2.224;2023-03-14T12:39:37;100187.96;;;7.25;66.24
46682;BME280;34101;53.430;-2.224;2023-03-14T12:42:11;100198.34;;;6.64;67.64
46682;BME280;34101;53.430;-2.224;2023-03-14T12:44:41;100197.79;;;6.09;68.25
46682;BME280;34101;53.430;-2.224;2023-03-14T12:47:49;100196.80;;;5.63;68.99
46682;BME280;34101;53.430;-2.224;2023-03-14T12:50:24;100183.50;;;6.21;67.86
46682;BME280;34101;53.430;-2.224;2023-03-14T12:53:07;100182.00;;;6.48;68.82
46682;BME280;34101;53.430;-2.224;2023-03-14T12:55:44;100175.83;;;6.41;69.42
46682;BME280;34101;53.430;-2.224;2023-03-14T12:58:20;100185.59;;;6.76;68.66
46682;BME280;34101;53.430;-2.224;2023-03-14T13:00:56;100186.53;;;7.09;67.74
46682;BME280;34101;53.430;-2.224;2023-03-14T13:03:27;100182.93;;;7.24;67.16
46682;BME280;34101;53.430;-2.224;2023-03-14T13:06:03;100180.86;;;7.24;66.30
46682;BME280;34101;53.430;-2.224;2023-03-14T13:08:40;100173.59;;;6.81;65.44
46682;BME280;34101;53.430;-2.224;2023-03-14T13:11:10;100174.78;;;7.30;66.99